sensor_id;sensor_type;location;lat;lon;timestamp;temperature;humidity
2571;DHT22;1295;51.130;6.732;2023-06-22T00:01:10;26.50;99.90
2571;DHT22;1295;51.130;6.732;2023-06-22T00:03:41;26.50;99.90
2571;DHT22;1295;51.130;6.732;2023-06-22T00:06:17;26.50;99.90
2571;DHT22;1295;51.130;6.732;2023-06-22T00:08:43;26.50;99.90
2571;DHT22;1295;51.130;6.732;2023-06-22T00:11:09;26.40;99.90
2571;DHT22;1295;51.130;6.732;2023-06-22T00:13:35;26.50;99.90
2571;DHT22;1295;51.130;6.732;2023-06-22T00:16:00;26.50;99.90
2571;DHT22;1295;51.130;6.732;2023-06-22T00:18:26;26.40;99.90
2571;DHT22;1295;51.130;6.732;2023-06-22T00:20:52;26.40;99.90
2571;DHT22;1295;51.130;6.732;2023-06-22T00:23:17;26.40;99.90
2571;DHT22;1295;51.130;6.732;2023-06-22T00:25:43;26.40;99.90
2571;DHT22;1295;51.130;6.732;2023-06-22T00:28:09;26.40;99.90
2571;DHT22;1295;51.130;6.732;2023-06-22T00:30:35;26.40;99.90
2571;DHT22;1295;51.130;6.732;2023-06-22T00:33:01;26.40;99.90
2571;DHT22;1295;51.130;6.732;2023-06-22T00:35:27;26.40;99.90
2571;DHT22;1295;51.130;6.732;2023-06-22T00:37:52;26.40;99.90
2571;DHT22;1295;51.130;6.732;2023-06-22T00:40:18;26.30;99.90
2571;DHT22;1295;51.130;6.732;2023-06-22T00:42:43;26.40;99.90
2571;DHT22;1295;51.130;6.732;2023-06-22T00:45:09;26.30;99.90
2571;DHT22;1295;51.130;6.732;2023-06-22T00:47:35;26.30;99.90
2571;DHT22;1295;51.130;6.732;2023-06-22T00:50:01;26.30;99.90
2571;DHT22;1295;51.130;6.732;2023-06-22T00:52:26;26.30;99.90
2571;DHT22;1295;51.130;6.732;2023-06-22T00:54:52;26.30;99.90
2571;DHT22;1295;51.130;6.732;2023-06-22T00:57:18;26.20;99.90
2571;DHT22;1295;51.130;6.732;2023-06-22T00:59:44;26.20;99.90
2571;DHT22;1295;51.130;6.732;2023-06-22T01:02:10;26.20;99.90
2571;DHT22;1295;51.130;6.732;2023-06-22T01:04:36;26.20;99.90
2571;DHT22;1295;51.130;6.732;2023-06-22T01:07:10;26.20;99.90
2571;DHT22;1295;51.130;6.732;2023-06-22T01:09:35;26.20;99.90
2571;DHT22;1295;51.130;6.732;2023-06-22T01:12:01;26.20;99.90
2571;DHT22;1295;51.130;6.732;2023-06-22T01:14:32;26.20;99.90
2571;DHT22;1295;51.130;6.732;2023-06-22T01:16:54;26.20;99.90
2571;DHT22;1295;51.130;6.732;2023-06-22T01:22:06;26.20;99.90
2571;DHT22;1295;51.130;6.732;2023-06-22T01:24:53;26.10;99.90
2571;DHT22;1295;51.130;6.732;2023-06-22T01:27:28;26.10;99.90
2571;DHT22;1295;51.130;6.732;2023-06-22T01:29:51;26.00;99.90
2571;DHT22;1295;51.130;6.732;2023-06-22T01:32:16;26.10;99.90
2571;DHT22;1295;51.130;6.732;2023-06-22T01:34:41;26.10;99.90
2571;DHT22;1295;51.130;6.732;2023-06-22T01:37:07;26.10;99.90
2571;DHT22;1295;51.130;6.732;2023-06-22T01:39:32;26.10;99.90
2571;DHT22;1295;51.130;6.732;2023-06-22T01:41:58;26.10;99.90
2571;DHT22;1295;51.130;6.732;2023-06-22T01:44:24;26.10;99.90
2571;DHT22;1295;51.130;6.732;2023-06-22T01:46:49;26.10;99.90
2571;DHT22;1295;51.130;6.732;2023-06-22T01:49:16;26.00;99.90
2571;DHT22;1295;51.130;6.732;2023-06-22T01:51:41;26.00;99.90
2571;DHT22;1295;51.130;6.732;2023-06-22T01:54:07;26.00;99.90
2571;DHT22;1295;51.130;6.732;2023-06-22T01:56:33;26.00;99.90
2571;DHT22;1295;51.130;6.732;2023-06-22T01:59:04;26.00;99.90
2571;DHT22;1295;51.130;6.732;2023-06-22T02:01:27;26.00;99.90
2571;DHT22;1295;51.130;6.732;2023-06-22T02:03:53;26.00;99.90
2571;DHT22;1295;51.130;6.732;2023-06-22T02:06:17;26.00;99.90
2571;DHT22;1295;51.130;6.732;2023-06-22T02:08:46;26.00;99.90
2571;DHT22;1295;51.130;6.732;2023-06-22T02:11:08;25.90;99.90
2571;DHT22;1295;51.130;6.732;2023-06-22T02:13:33;26.00;99.90
2571;DHT22;1295;51.130;6.732;2023-06-22T02:15:59;25.90;99.90
2571;DHT22;1295;51.130;6.732;2023-06-22T02:18:25;25.90;99.90
2571;DHT22;1295;51.130;6.732;2023-06-22T02:20:51;25.90;99.90
2571;DHT22;1295;51.130;6.732;2023-06-22T02:23:16;25.90;99.90
2571;DHT22;1295;51.130;6.732;2023-06-22T02:25:42;25.90;99.90
2571;DHT22;1295;51.130;6.732;2023-06-22T02:28:08;25.90;99.90
2571;DHT22;1295;51.130;6.732;2023-06-22T02:30:33;25.90;99.90
2571;DHT22;1295;51.130;6.732;2023-06-22T02:32:59;25.80;99.90
2571;DHT22;1295;51.130;6.732;2023-06-22T02:35:25;25.80;99.90
2571;DHT22;1295;51.130;6.732;2023-06-22T02:37:50;25.80;99.90
2571;DHT22;1295;51.130;6.732;2023-06-22T02:40:16;25.80;99.90
2571;DHT22;1295;51.130;6.732;2023-06-22T02:42:42;25.80;99.90
2571;DHT22;1295;51.130;6.732;2023-06-22T02:45:08;25.80;99.90
2571;DHT22;1295;51.130;6.732;2023-06-22T02:47:34;25.80;99.90
2571;DHT22;1295;51.130;6.732;2023-06-22T02:49:59;25.80;99.90
2571;DHT22;1295;51.130;6.732;2023-06-22T02:52:26;25.80;99.90
2571;DHT22;1295;51.130;6.732;2023-06-22T02:54:51;25.80;99.90
2571;DHT22;1295;51.130;6.732;2023-06-22T02:57:17;25.80;99.90
2571;DHT22;1295;51.130;6.732;2023-06-22T02:59:43;25.80;99.90
2571;DHT22;1295;51.130;6.732;2023-06-22T03:02:08;25.80;99.90
2571;DHT22;1295;51.130;6.732;2023-06-22T03:04:35;25.70;99.90
2571;DHT22;1295;51.130;6.732;2023-06-22T03:07:01;25.70;99.90
2571;DHT22;1295;51.130;6.732;2023-06-22T03:09:27;25.70;99.90
2571;DHT22;1295;51.130;6.732;2023-06-22T03:11:53;25.70;99.90
2571;DHT22;1295;51.130;6.732;2023-06-22T03:14:18;25.70;99.90
2571;DHT22;1295;51.130;6.732;2023-06-22T03:16:44;25.70;99.90
2571;DHT22;1295;51.130;6.732;2023-06-22T03:19:10;25.70;99.90
2571;DHT22;1295;51.130;6.732;2023-06-22T03:21:37;25.70;99.90
2571;DHT22;1295;51.130;6.732;2023-06-22T03:24:01;25.70;99.90
2571;DHT22;1295;51.130;6.732;2023-06-22T03:26:27;25.70;99.90
2571;DHT22;1295;51.130;6.732;2023-06-22T03:28:53;25.70;99.90
2571;DHT22;1295;51.130;6.732;2023-06-22T03:31:19;25.60;99.90
2571;DHT22;1295;51.130;6.732;2023-06-22T03:33:44;25.70;99.90
2571;DHT22;1295;51.130;6.732;2023-06-22T03:36:10;25.60;99.90
2571;DHT22;1295;51.130;6.732;2023-06-22T03:38:36;25.60;99.90
2571;DHT22;1295;51.130;6.732;2023-06-22T03:41:01;25.60;99.90
2571;DHT22;1295;51.130;6.732;2023-06-22T03:43:27;25.60;99.90
2571;DHT22;1295;51.130;6.732;2023-06-22T03:45:52;25.60;99.90
2571;DHT22;1295;51.130;6.732;2023-06-22T03:48:18;25.60;99.90
2571;DHT22;1295;51.130;6.732;2023-06-22T03:50:44;25.60;99.90
2571;DHT22;1295;51.130;6.732;2023-06-22T03:53:09;25.60;99.90
2571;DHT22;1295;51.130;6.732;2023-06-22T03:55:35;25.60;99.90
2571;DHT22;1295;51.130;6.732;2023-06-22T03:58:01;25.50;99.90
2571;DHT22;1295;51.130;6.732;2023-06-22T04:00:26;25.50;99.90
2571;DHT22;1295;51.130;6.732;2023-06-22T04:02:53;25.50;99.90
2571;DHT22;1295;51.130;6.732;2023-06-22T04:05:18;25.50;99.90
2571;DHT22;1295;51.130;6.732;2023-06-22T04:07:44;25.50;99.90
2571;DHT22;1295;51.130;6.732;2023-06-22T04:10:10;25.50;99.90
2571;DHT22;1295;51.130;6.732;2023-06-22T04:12:35;25.50;99.90
2571;DHT22;1295;51.130;6.732;2023-06-22T04:15:01;25.50;99.90
2571;DHT22;1295;51.130;6.732;2023-06-22T04:17:26;25.50;99.90
2571;DHT22;1295;51.130;6.732;2023-06-22T04:19:52;25.40;99.90
2571;DHT22;1295;51.130;6.732;2023-06-22T04:22:18;25.50;99.90
2571;DHT22;1295;51.130;6.732;2023-06-22T04:24:44;25.50;99.90
2571;DHT22;1295;51.130;6.732;2023-06-22T04:27:09;25.40;99.90
2571;DHT22;1295;51.130;6.732;2023-06-22T04:29:35;25.40;99.90
2571;DHT22;1295;51.130;6.732;2023-06-22T04:32:00;25.40;99.90
2571;DHT22;1295;51.130;6.732;2023-06-22T04:34:26;25.40;99.90
2571;DHT22;1295;51.130;6.732;2023-06-22T04:36:52;25.40;99.90
2571;DHT22;1295;51.130;6.732;2023-06-22T04:39:17;25.40;99.90
2571;DHT22;1295;51.130;6.732;2023-06-22T04:41:43;25.40;99.90
2571;DHT22;1295;51.130;6.732;2023-06-22T04:44:10;25.40;99.90
2571;DHT22;1295;51.130;6.732;2023-06-22T04:46:36;25.40;99.90
2571;DHT22;1295;51.130;6.732;2023-06-22T04:49:01;25.40;99.90
2571;DHT22;1295;51.130;6.732;2023-06-22T04:51:27;25.40;99.90
2571;DHT22;1295;51.130;6.732;2023-06-22T04:53:52;25.40;99.90
2571;DHT22;1295;51.130;6.732;2023-06-22T04:56:18;25.40;99.90
2571;DHT22;1295;51.130;6.732;2023-06-22T04:58:44;25.40;99.90
2571;DHT22;1295;51.130;6.732;2023-06-22T05:01:09;25.30;99.90
2571;DHT22;1295;51.130;6.732;2023-06-22T05:03:35;25.30;99.90
2571;DHT22;1295;51.130;6.732;2023-06-22T05:06:01;25.40;99.90
2571;DHT22;1295;51.130;6.732;2023-06-22T05:08:26;25.30;99.90
2571;DHT22;1295;51.130;6.732;2023-06-22T05:10:52;25.30;99.90
2571;DHT22;1295;51.130;6.732;2023-06-22T05:13:18;25.30;99.90
2571;DHT22;1295;51.130;6.732;2023-06-22T05:15:44;25.30;99.90
2571;DHT22;1295;51.130;6.732;2023-06-22T05:18:10;25.30;99.90
2571;DHT22;1295;51.130;6.732;2023-06-22T05:20:36;25.30;99.90
2571;DHT22;1295;51.130;6.732;2023-06-22T05:23:02;25.30;99.90
2571;DHT22;1295;51.130;6.732;2023-06-22T05:25:28;25.30;99.90
2571;DHT22;1295;51.130;6.732;2023-06-22T05:27:55;25.20;99.90
2571;DHT22;1295;51.130;6.732;2023-06-22T05:30:20;25.30;99.90
2571;DHT22;1295;51.130;6.732;2023-06-22T05:32:46;25.30;99.90
2571;DHT22;1295;51.130;6.732;2023-06-22T05:35:12;25.20;99.90
2571;DHT22;1295;51.130;6.732;2023-06-22T05:37:37;25.20;99.90
2571;DHT22;1295;51.130;6.732;2023-06-22T05:40:04;25.20;99.90
2571;DHT22;1295;51.130;6.732;2023-06-22T05:42:29;25.20;99.90
2571;DHT22;1295;51.130;6.732;2023-06-22T05:44:55;25.20;99.90
2571;DHT22;1295;51.130;6.732;2023-06-22T05:47:21;25.20;99.90
2571;DHT22;1295;51.130;6.732;2023-06-22T05:49:46;25.20;99.90
2571;DHT22;1295;51.130;6.732;2023-06-22T05:52:12;25.20;99.90
2571;DHT22;1295;51.130;6.732;2023-06-22T05:54:38;25.20;99.90
2571;DHT22;1295;51.130;6.732;2023-06-22T05:57:04;25.20;99.90
2571;DHT22;1295;51.130;6.732;2023-06-22T05:59:30;25.20;99.90
2571;DHT22;1295;51.130;6.732;2023-06-22T06:01:56;25.10;99.90
2571;DHT22;1295;51.130;6.732;2023-06-22T06:04:21;25.10;99.90
2571;DHT22;1295;51.130;6.732;2023-06-22T06:06:47;24.90;99.90
2571;DHT22;1295;51.130;6.732;2023-06-22T06:09:13;24.80;99.90
2571;DHT22;1295;51.130;6.732;2023-06-22T06:11:38;24.70;99.90
2571;DHT22;1295;51.130;6.732;2023-06-22T06:14:04;24.70;99.90
2571;DHT22;1295;51.130;6.732;2023-06-22T06:16:29;24.70;99.90
2571;DHT22;1295;51.130;6.732;2023-06-22T06:18:55;24.80;99.90
2571;DHT22;1295;51.130;6.732;2023-06-22T06:21:21;24.80;99.90
2571;DHT22;1295;51.130;6.732;2023-06-22T06:23:46;24.90;99.90
2571;DHT22;1295;51.130;6.732;2023-06-22T06:26:12;24.90;99.90
2571;DHT22;1295;51.130;6.732;2023-06-22T06:28:38;24.90;99.90
2571;DHT22;1295;51.130;6.732;2023-06-22T06:31:03;25.00;99.90
2571;DHT22;1295;51.130;6.732;2023-06-22T06:33:30;24.90;99.90
2571;DHT22;1295;51.130;6.732;2023-06-22T06:35:55;24.90;99.90
2571;DHT22;1295;51.130;6.732;2023-06-22T06:38:21;25.00;99.90
2571;DHT22;1295;51.130;6.732;2023-06-22T06:40:47;24.90;99.90
2571;DHT22;1295;51.130;6.732;2023-06-22T06:43:12;25.00;99.90
2571;DHT22;1295;51.130;6.732;2023-06-22T06:45:38;25.00;99.90
2571;DHT22;1295;51.130;6.732;2023-06-22T06:48:04;25.00;99.90
2571;DHT22;1295;51.130;6.732;2023-06-22T06:50:30;24.90;99.90
2571;DHT22;1295;51.130;6.732;2023-06-22T06:52:56;24.90;99.90
2571;DHT22;1295;51.130;6.732;2023-06-22T06:55:22;24.90;99.90
2571;DHT22;1295;51.130;6.732;2023-06-22T06:57:47;24.60;99.90
2571;DHT22;1295;51.130;6.732;2023-06-22T07:00:14;24.80;99.90
2571;DHT22;1295;51.130;6.732;2023-06-22T07:02:40;24.90;99.90
2571;DHT22;1295;51.130;6.732;2023-06-22T07:05:05;24.90;99.90
2571;DHT22;1295;51.130;6.732;2023-06-22T07:07:32;24.80;99.90
2571;DHT22;1295;51.130;6.732;2023-06-22T07:09:58;24.90;99.90
2571;DHT22;1295;51.130;6.732;2023-06-22T07:12:23;24.90;99.90
2571;DHT22;1295;51.130;6.732;2023-06-22T07:14:49;24.90;99.90
2571;DHT22;1295;51.130;6.732;2023-06-22T07:17:15;24.90;99.90
2571;DHT22;1295;51.130;6.732;2023-06-22T07:19:40;24.90;99.90
2571;DHT22;1295;51.130;6.732;2023-06-22T07:22:06;24.90;99.90
2571;DHT22;1295;51.130;6.732;2023-06-22T07:24:32;24.90;99.90
2571;DHT22;1295;51.130;6.732;2023-06-22T07:26:58;24.70;99.90
2571;DHT22;1295;51.130;6.732;2023-06-22T07:29:24;24.70;99.90
2571;DHT22;1295;51.130;6.732;2023-06-22T07:31:49;24.80;99.90
2571;DHT22;1295;51.130;6.732;2023-06-22T07:34:15;24.80;99.90
2571;DHT22;1295;51.130;6.732;2023-06-22T07:36:40;24.90;99.90
2571;DHT22;1295;51.130;6.732;2023-06-22T07:39:06;24.90;99.90
2571;DHT22;1295;51.130;6.732;2023-06-22T07:41:32;24.90;99.90
2571;DHT22;1295;51.130;6.732;2023-06-22T07:43:57;24.90;99.90
2571;DHT22;1295;51.130;6.732;2023-06-22T07:46:23;24.90;99.90
2571;DHT22;1295;51.130;6.732;2023-06-22T07:48:49;25.00;99.90
2571;DHT22;1295;51.130;6.732;2023-06-22T07:51:14;25.00;99.90
2571;DHT22;1295;51.130;6.732;2023-06-22T07:53:41;25.00;99.90
2571;DHT22;1295;51.130;6.732;2023-06-22T07:56:07;25.00;99.90
2571;DHT22;1295;51.130;6.732;2023-06-22T07:58:33;25.00;99.90
2571;DHT22;1295;51.130;6.732;2023-06-22T08:00:59;25.00;99.90
2571;DHT22;1295;51.130;6.732;2023-06-22T08:03:25;25.10;99.90
2571;DHT22;1295;51.130;6.732;2023-06-22T08:05:51;25.10;99.90
2571;DHT22;1295;51.130;6.732;2023-06-22T08:08:16;25.10;99.90
2571;DHT22;1295;51.130;6.732;2023-06-22T08:10:42;25.20;99.90
2571;DHT22;1295;51.130;6.732;2023-06-22T08:13:09;25.20;99.90
2571;DHT22;1295;51.130;6.732;2023-06-22T08:15:34;25.20;99.90
2571;DHT22;1295;51.130;6.732;2023-06-22T08:18:00;25.10;99.90
2571;DHT22;1295;51.130;6.732;2023-06-22T08:20:25;25.10;99.90
2571;DHT22;1295;51.130;6.732;2023-06-22T08:22:53;25.00;99.90
2571;DHT22;1295;51.130;6.732;2023-06-22T08:25:16;24.80;99.90
2571;DHT22;1295;51.130;6.732;2023-06-22T08:27:44;25.00;99.90
2571;DHT22;1295;51.130;6.732;2023-06-22T08:30:09;25.20;99.90
2571;DHT22;1295;51.130;6.732;2023-06-22T08:32:34;25.20;99.90
2571;DHT22;1295;51.130;6.732;2023-06-22T08:35:00;25.30;99.90
2571;DHT22;1295;51.130;6.732;2023-06-22T08:37:25;25.00;99.90
2571;DHT22;1295;51.130;6.732;2023-06-22T08:39:51;25.20;99.90
2571;DHT22;1295;51.130;6.732;2023-06-22T08:42:17;25.20;99.90
2571;DHT22;1295;51.130;6.732;2023-06-22T08:44:42;25.40;99.90
2571;DHT22;1295;51.130;6.732;2023-06-22T08:47:08;25.50;99.90
2571;DHT22;1295;51.130;6.732;2023-06-22T08:49:34;25.60;99.90
2571;DHT22;1295;51.130;6.732;2023-06-22T08:51:59;25.60;99.90
2571;DHT22;1295;51.130;6.732;2023-06-22T08:54:25;25.60;99.90
2571;DHT22;1295;51.130;6.732;2023-06-22T08:56:51;25.60;99.90
2571;DHT22;1295;51.130;6.732;2023-06-22T08:59:16;25.60;99.90
2571;DHT22;1295;51.130;6.732;2023-06-22T09:01:42;25.90;99.90
2571;DHT22;1295;51.130;6.732;2023-06-22T09:04:07;26.00;99.90
2571;DHT22;1295;51.130;6.732;2023-06-22T09:06:33;25.90;99.90
2571;DHT22;1295;51.130;6.732;2023-06-22T09:08:59;25.80;99.90
2571;DHT22;1295;51.130;6.732;2023-06-22T09:11:25;25.80;99.90
2571;DHT22;1295;51.130;6.732;2023-06-22T09:13:51;25.80;99.90
2571;DHT22;1295;51.130;6.732;2023-06-22T09:16:17;25.80;99.90
2571;DHT22;1295;51.130;6.732;2023-06-22T09:18:45;25.90;99.90
2571;DHT22;1295;51.130;6.732;2023-06-22T09:21:08;25.80;99.90
2571;DHT22;1295;51.130;6.732;2023-06-22T09:23:34;25.70;99.90
2571;DHT22;1295;51.130;6.732;2023-06-22T09:26:00;25.90;99.90
2571;DHT22;1295;51.130;6.732;2023-06-22T09:28:25;26.10;99.90
2571;DHT22;1295;51.130;6.732;2023-06-22T09:30:52;25.80;99.90
2571;DHT22;1295;51.130;6.732;2023-06-22T09:33:17;25.80;99.90
2571;DHT22;1295;51.130;6.732;2023-06-22T09:35:44;26.30;99.90
2571;DHT22;1295;51.130;6.732;2023-06-22T09:38:09;26.30;99.90
2571;DHT22;1295;51.130;6.732;2023-06-22T09:40:35;25.90;99.90
2571;DHT22;1295;51.130;6.732;2023-06-22T09:43:01;26.20;99.90
2571;DHT22;1295;51.130;6.732;2023-06-22T09:45:26;26.20;99.90
2571;DHT22;1295;51.130;6.732;2023-06-22T09:47:52;26.10;99.90
2571;DHT22;1295;51.130;6.732;2023-06-22T09:50:18;26.20;99.90
2571;DHT22;1295;51.130;6.732;2023-06-22T09:52:44;26.00;99.90
2571;DHT22;1295;51.130;6.732;2023-06-22T09:55:10;26.00;99.90
2571;DHT22;1295;51.130;6.732;2023-06-22T09:57:35;26.00;99.90
2571;DHT22;1295;51.130;6.732;2023-06-22T10:00:01;26.30;99.90
2571;DHT22;1295;51.130;6.732;2023-06-22T10:02:27;26.40;99.90
2571;DHT22;1295;51.130;6.732;2023-06-22T10:04:52;26.40;99.90
2571;DHT22;1295;51.130;6.732;2023-06-22T10:07:18;26.40;99.90
2571;DHT22;1295;51.130;6.732;2023-06-22T10:09:44;26.40;99.90
2571;DHT22;1295;51.130;6.732;2023-06-22T10:12:09;26.30;99.90
2571;DHT22;1295;51.130;6.732;2023-06-22T10:14:35;26.30;99.90
2571;DHT22;1295;51.130;6.732;2023-06-22T10:17:02;26.20;99.90
2571;DHT22;1295;51.130;6.732;2023-06-22T10:19:26;26.00;99.90
2571;DHT22;1295;51.130;6.732;2023-06-22T10:21:52;26.10;99.90
2571;DHT22;1295;51.130;6.732;2023-06-22T10:24:18;26.00;99.90
2571;DHT22;1295;51.130;6.732;2023-06-22T10:26:44;26.20;99.90
2571;DHT22;1295;51.130;6.732;2023-06-22T10:29:10;26.20;99.90
2571;DHT22;1295;51.130;6.732;2023-06-22T10:31:35;26.20;99.90
2571;DHT22;1295;51.130;6.732;2023-06-22T10:34:01;26.30;99.90
2571;DHT22;1295;51.130;6.732;2023-06-22T10:36:27;26.20;99.90
2571;DHT22;1295;51.130;6.732;2023-06-22T10:38:52;26.00;99.90
2571;DHT22;1295;51.130;6.732;2023-06-22T10:41:18;26.00;99.90
2571;DHT22;1295;51.130;6.732;2023-06-22T10:43:44;26.00;99.90
2571;DHT22;1295;51.130;6.732;2023-06-22T10:46:09;26.00;99.90
2571;DHT22;1295;51.130;6.732;2023-06-22T10:48:35;25.90;99.90
2571;DHT22;1295;51.130;6.732;2023-06-22T10:51:00;25.90;99.90
2571;DHT22;1295;51.130;6.732;2023-06-22T10:53:26;25.70;99.90
2571;DHT22;1295;51.130;6.732;2023-06-22T10:55:52;25.60;99.90
2571;DHT22;1295;51.130;6.732;2023-06-22T10:58:18;25.50;99.90
2571;DHT22;1295;51.130;6.732;2023-06-22T11:00:43;25.60;99.90
2571;DHT22;1295;51.130;6.732;2023-06-22T11:03:09;25.70;99.90
2571;DHT22;1295;51.130;6.732;2023-06-22T11:05:34;25.60;99.90
2571;DHT22;1295;51.130;6.732;2023-06-22T11:08:00;25.70;99.90
2571;DHT22;1295;51.130;6.732;2023-06-22T11:10:26;25.60;99.90
2571;DHT22;1295;51.130;6.732;2023-06-22T11:12:52;25.60;99.90
2571;DHT22;1295;51.130;6.732;2023-06-22T11:15:18;25.60;99.90
2571;DHT22;1295;51.130;6.732;2023-06-22T11:17:44;25.60;99.90
2571;DHT22;1295;51.130;6.732;2023-06-22T11:20:10;25.50;99.90
2571;DHT22;1295;51.130;6.732;2023-06-22T11:22:38;25.50;99.90
2571;DHT22;1295;51.130;6.732;2023-06-22T11:25:04;25.50;99.90
2571;DHT22;1295;51.130;6.732;2023-06-22T11:27:30;25.50;99.90
2571;DHT22;1295;51.130;6.732;2023-06-22T11:29:55;25.50;99.90
2571;DHT22;1295;51.130;6.732;2023-06-22T11:32:21;25.50;99.90
2571;DHT22;1295;51.130;6.732;2023-06-22T11:34:47;25.50;99.90
2571;DHT22;1295;51.130;6.732;2023-06-22T11:37:12;25.40;99.90
2571;DHT22;1295;51.130;6.732;2023-06-22T11:39:38;25.40;99.90
2571;DHT22;1295;51.130;6.732;2023-06-22T11:42:04;25.40;99.90
2571;DHT22;1295;51.130;6.732;2023-06-22T11:44:30;25.40;99.90
2571;DHT22;1295;51.130;6.732;2023-06-22T11:46:55;25.40;99.90
2571;DHT22;1295;51.130;6.732;2023-06-22T11:49:21;25.40;99.90
2571;DHT22;1295;51.130;6.732;2023-06-22T11:51:47;25.40;99.90
2571;DHT22;1295;51.130;6.732;2023-06-22T11:54:12;25.30;99.90
2571;DHT22;1295;51.130;6.732;2023-06-22T11:56:38;25.40;99.90
2571;DHT22;1295;51.130;6.732;2023-06-22T11:59:04;25.30;99.90
2571;DHT22;1295;51.130;6.732;2023-06-22T12:01:30;25.40;99.90
2571;DHT22;1295;51.130;6.732;2023-06-22T12:03:56;25.40;99.90
2571;DHT22;1295;51.130;6.732;2023-06-22T12:06:21;25.40;99.90
2571;DHT22;1295;51.130;6.732;2023-06-22T12:08:47;25.40;99.90
2571;DHT22;1295;51.130;6.732;2023-06-22T12:11:13;25.40;99.90
2571;DHT22;1295;51.130;6.732;2023-06-22T12:13:39;25.50;99.90
2571;DHT22;1295;51.130;6.732;2023-06-22T12:16:05;25.40;99.90
2571;DHT22;1295;51.130;6.732;2023-06-22T12:18:30;25.50;99.90
2571;DHT22;1295;51.130;6.732;2023-06-22T12:20:56;25.50;99.90
2571;DHT22;1295;51.130;6.732;2023-06-22T12:23:23;25.50;99.90
2571;DHT22;1295;51.130;6.732;2023-06-22T12:25:48;25.50;99.90
2571;DHT22;1295;51.130;6.732;2023-06-22T12:28:14;25.50;99.90
2571;DHT22;1295;51.130;6.732;2023-06-22T12:30:40;25.50;99.90
2571;DHT22;1295;51.130;6.732;2023-06-22T12:33:05;25.50;99.90
2571;DHT22;1295;51.130;6.732;2023-06-22T12:35:31;25.50;99.90
2571;DHT22;1295;51.130;6.732;2023-06-22T12:37:57;25.60;99.90
2571;DHT22;1295;51.130;6.732;2023-06-22T12:40:23;25.60;99.90
2571;DHT22;1295;51.130;6.732;2023-06-22T12:42:48;25.50;99.90
2571;DHT22;1295;51.130;6.732;2023-06-22T12:45:15;25.60;99.90
2571;DHT22;1295;51.130;6.732;2023-06-22T12:47:40;25.60;99.90
2571;DHT22;1295;51.130;6.732;2023-06-22T12:50:07;25.60;99.90
2571;DHT22;1295;51.130;6.732;2023-06-22T12:52:33;25.60;99.90
2571;DHT22;1295;51.130;6.732;2023-06-22T12:54:58;25.70;99.90
2571;DHT22;1295;51.130;6.732;2023-06-22T12:57:24;25.60;99.90
2571;DHT22;1295;51.130;6.732;2023-06-22T12:59:49;25.60;99.90
2571;DHT22;1295;51.130;6.732;2023-06-22T13:02:15;25.60;99.90
2571;DHT22;1295;51.130;6.732;2023-06-22T13:04:41;25.60;99.90
2571;DHT22;1295;51.130;6.732;2023-06-22T13:07:06;25.60;99.90
2571;DHT22;1295;51.130;6.732;2023-06-22T13:09:32;25.60;99.90
2571;DHT22;1295;51.130;6.732;2023-06-22T13:11:59;25.50;99.90
2571;DHT22;1295;51.130;6.732;2023-06-22T13:14:23;25.50;99.90
2571;DHT22;1295;51.130;6.732;2023-06-22T13:16:49;25.50;99.90
2571;DHT22;1295;51.130;6.732;2023-06-22T13:19:15;25.50;99.90
2571;DHT22;1295;51.130;6.732;2023-06-22T13:21:41;25.50;99.90
2571;DHT22;1295;51.130;6.732;2023-06-22T13:24:06;25.50;99.90
2571;DHT22;1295;51.130;6.732;2023-06-22T13:26:32;25.50;99.90
2571;DHT22;1295;51.130;6.732;2023-06-22T13:28:58;25.50;99.90
2571;DHT22;1295;51.130;6.732;2023-06-22T13:31:23;25.40;99.90
2571;DHT22;1295;51.130;6.732;2023-06-22T13:33:49;25.50;99.90
2571;DHT22;1295;51.130;6.732;2023-06-22T13:36:15;25.50;99.90
2571;DHT22;1295;51.130;6.732;2023-06-22T13:38:40;25.50;99.90
2571;DHT22;1295;51.130;6.732;2023-06-22T13:41:06;25.50;99.90
2571;DHT22;1295;51.130;6.732;2023-06-22T13:43:32;25.50;99.90
2571;DHT22;1295;51.130;6.732;2023-06-22T13:45:58;25.50;99.90
2571;DHT22;1295;51.130;6.732;2023-06-22T13:48:24;25.50;99.90
2571;DHT22;1295;51.130;6.732;2023-06-22T13:50:49;25.50;99.90
2571;DHT22;1295;51.130;6.732;2023-06-22T13:53:15;25.50;99.90
2571;DHT22;1295;51.130;6.732;2023-06-22T13:55:41;25.50;99.90
2571;DHT22;1295;51.130;6.732;2023-06-22T13:58:06;25.50;99.90
2571;DHT22;1295;51.130;6.732;2023-06-22T14:00:32;25.50;99.90
2571;DHT22;1295;51.130;6.732;2023-06-22T14:02:57;25.50;99.90
2571;DHT22;1295;51.130;6.732;2023-06-22T14:05:23;25.50;99.90
2571;DHT22;1295;51.130;6.732;2023-06-22T14:07:49;25.50;99.90
2571;DHT22;1295;51.130;6.732;2023-06-22T14:10:15;25.50;99.90
2571;DHT22;1295;51.130;6.732;2023-06-22T14:12:40;25.60;99.90
2571;DHT22;1295;51.130;6.732;2023-06-22T14:15:06;25.60;99.90
2571;DHT22;1295;51.130;6.732;2023-06-22T14:17:32;25.60;99.90
2571;DHT22;1295;51.130;6.732;2023-06-22T14:19:58;25.60;99.90
2571;DHT22;1295;51.130;6.732;2023-06-22T14:22:23;25.50;99.90
2571;DHT22;1295;51.130;6.732;2023-06-22T14:24:49;25.40;99.90
2571;DHT22;1295;51.130;6.732;2023-06-22T14:27:15;25.50;99.90
2571;DHT22;1295;51.130;6.732;2023-06-22T14:29:41;25.40;99.90
2571;DHT22;1295;51.130;6.732;2023-06-22T14:32:08;25.40;99.90
2571;DHT22;1295;51.130;6.732;2023-06-22T14:34:34;25.40;99.90
2571;DHT22;1295;51.130;6.732;2023-06-22T14:36:59;25.40;99.90
2571;DHT22;1295;51.130;6.732;2023-06-22T14:39:25;25.40;99.90
2571;DHT22;1295;51.130;6.732;2023-06-22T14:41:50;25.30;99.90
2571;DHT22;1295;51.130;6.732;2023-06-22T14:44:16;25.30;99.90
2571;DHT22;1295;51.130;6.732;2023-06-22T14:46:42;25.30;99.90
2571;DHT22;1295;51.130;6.732;2023-06-22T14:49:07;25.20;99.90
2571;DHT22;1295;51.130;6.732;2023-06-22T14:51:33;25.30;99.90
2571;DHT22;1295;51.130;6.732;2023-06-22T14:53:58;25.30;99.90
2571;DHT22;1295;51.130;6.732;2023-06-22T14:56:24;25.30;99.90
2571;DHT22;1295;51.130;6.732;2023-06-22T14:58:50;25.30;99.90
2571;DHT22;1295;51.130;6.732;2023-06-22T15:01:16;25.30;99.90
2571;DHT22;1295;51.130;6.732;2023-06-22T15:03:42;25.30;99.90
2571;DHT22;1295;51.130;6.732;2023-06-22T15:06:08;25.40;99.90
2571;DHT22;1295;51.130;6.732;2023-06-22T15:08:33;25.40;99.90
2571;DHT22;1295;51.130;6.732;2023-06-22T15:10:59;25.40;99.90
2571;DHT22;1295;51.130;6.732;2023-06-22T15:13:25;25.20;99.90
2571;DHT22;1295;51.130;6.732;2023-06-22T15:15:52;25.20;99.90
2571;DHT22;1295;51.130;6.732;2023-06-22T15:18:17;25.00;99.90
2571;DHT22;1295;51.130;6.732;2023-06-22T15:20:43;25.10;99.90
2571;DHT22;1295;51.130;6.732;2023-06-22T15:23:08;25.10;99.90
2571;DHT22;1295;51.130;6.732;2023-06-22T15:25:34;25.20;99.90
2571;DHT22;1295;51.130;6.732;2023-06-22T15:27:59;25.00;99.90
2571;DHT22;1295;51.130;6.732;2023-06-22T15:30:25;25.10;99.90
2571;DHT22;1295;51.130;6.732;2023-06-22T15:32:51;25.10;99.90
2571;DHT22;1295;51.130;6.732;2023-06-22T15:35:16;25.20;99.90
2571;DHT22;1295;51.130;6.732;2023-06-22T15:37:42;25.10;99.90
2571;DHT22;1295;51.130;6.732;2023-06-22T15:40:08;25.10;99.90
2571;DHT22;1295;51.130;6.732;2023-06-22T15:42:34;25.10;99.90
2571;DHT22;1295;51.130;6.732;2023-06-22T15:44:59;25.10;99.90
2571;DHT22;1295;51.130;6.732;2023-06-22T15:47:25;24.90;99.90
2571;DHT22;1295;51.130;6.732;2023-06-22T15:49:51;25.10;99.90
2571;DHT22;1295;51.130;6.732;2023-06-22T15:52:17;25.00;99.90
2571;DHT22;1295;51.130;6.732;2023-06-22T15:54:43;24.70;99.90